This is the latest recevied weather packets stored in our database for station/object IZ1BLA-10. If no packets are shown the sender has not sent any weather packets the latest 10 day(s).
| Time | Temp. | Humidity | Pressure | Rain* | Wind** | Luminosity | Snow |
|---|---|---|---|---|---|---|---|
| 1777945154 | 10.56° C | 98% | 1015.3 hPa | - | - | - | - |
| 1777944554 | 11.11° C | 93% | 1015.2 hPa | - | - | - | - |
| 1777943954 | 11.67° C | 96% | 1015 hPa | - | - | - | - |
| 1777943354 | 10° C | 10% | - | - | - | - | - |
| 1777942754 | 11.11° C | 94% | 1015.4 hPa | - | - | - | - |
| 1777942154 | 11.11° C | 92% | 1015.4 hPa | - | - | - | - |
| 1777941554 | 10.56° C | 95% | 1015.7 hPa | - | - | - | - |
| 1777940954 | 11.67° C | 88% | 1015.5 hPa | - | - | - | - |
| 1777940354 | 10.56° C | 97% | 1016 hPa | - | - | - | - |
| 1777939754 | 10° C | 10% | - | - | - | - | - |
| 1777939154 | 10° C | 10% | - | - | - | - | - |
| 1777938554 | 10° C | 10% | - | - | - | - | - |
| 1777937954 | 10° C | 10% | - | - | - | - | - |
| 1777937353 | 10.56° C | 96% | 1017 hPa | - | - | - | - |
| 1777936754 | 11.11° C | 89% | 1017 hPa | - | - | - | - |
| 1777936154 | 12.78° C | 79% | 1016.7 hPa | - | - | - | - |
| 1777935554 | 14.44° C | 71% | 1016.3 hPa | - | - | - | - |
| 1777934954 | 15° C | 66% | 1016.4 hPa | - | - | - | - |
| 1777934353 | 15° C | 67% | 1016.3 hPa | - | - | - | - |
| 1777933754 | 15° C | 66% | 1016.5 hPa | - | - | - | - |
| 1777933153 | 14.44° C | 70% | 1016.6 hPa | - | - | - | - |
| 1777932554 | 13.89° C | 69% | 1016.9 hPa | - | - | - | - |
| 1777931953 | 15° C | 67% | 1016.7 hPa | - | - | - | - |
| 1777931354 | 15° C | 68% | 1016.8 hPa | - | - | - | - |
| 1777930753 | 14.44° C | 69% | 1016.9 hPa | - | - | - | - |
* Rain since midnight (hover to see other rain measurements)
** Current wind speed in m/s (hover to see current wind gust speed)